sensor_id;sensor_type;location;lat;lon;timestamp;temperature;humidity
55828;DHT22;41758;51.992;5.890;2022-12-24T00:00:06;16.60;72.40
55828;DHT22;41758;51.992;5.890;2022-12-24T00:02:32;16.50;72.00
55828;DHT22;41758;51.992;5.890;2022-12-24T00:04:58;16.50;72.30
55828;DHT22;41758;51.992;5.890;2022-12-24T00:07:23;16.50;72.20
55828;DHT22;41758;51.992;5.890;2022-12-24T00:09:49;16.40;71.50
55828;DHT22;41758;51.992;5.890;2022-12-24T00:12:15;16.40;72.00
55828;DHT22;41758;51.992;5.890;2022-12-24T00:14:41;16.50;72.40
55828;DHT22;41758;51.992;5.890;2022-12-24T00:17:06;16.50;72.30
55828;DHT22;41758;51.992;5.890;2022-12-24T00:19:32;16.60;72.60
55828;DHT22;41758;51.992;5.890;2022-12-24T00:21:57;16.50;72.00
55828;DHT22;41758;51.992;5.890;2022-12-24T00:24:23;16.50;72.20
55828;DHT22;41758;51.992;5.890;2022-12-24T00:26:49;16.60;72.20
55828;DHT22;41758;51.992;5.890;2022-12-24T00:29:14;16.60;72.40
55828;DHT22;41758;51.992;5.890;2022-12-24T00:31:40;16.60;72.40
55828;DHT22;41758;51.992;5.890;2022-12-24T00:34:06;16.70;72.30
55828;DHT22;41758;51.992;5.890;2022-12-24T00:36:33;16.60;72.10
55828;DHT22;41758;51.992;5.890;2022-12-24T00:38:58;16.70;72.20
55828;DHT22;41758;51.992;5.890;2022-12-24T00:41:24;16.70;71.60
55828;DHT22;41758;51.992;5.890;2022-12-24T00:43:54;16.60;71.80
55828;DHT22;41758;51.992;5.890;2022-12-24T00:46:20;16.60;71.00
55828;DHT22;41758;51.992;5.890;2022-12-24T00:48:46;16.60;71.70
55828;DHT22;41758;51.992;5.890;2022-12-24T00:51:12;16.60;71.40
55828;DHT22;41758;51.992;5.890;2022-12-24T00:53:38;16.60;71.90
55828;DHT22;41758;51.992;5.890;2022-12-24T00:56:03;16.60;72.10
55828;DHT22;41758;51.992;5.890;2022-12-24T00:58:29;16.60;71.90
55828;DHT22;41758;51.992;5.890;2022-12-24T01:00:55;16.60;71.90
55828;DHT22;41758;51.992;5.890;2022-12-24T01:03:20;16.60;72.10
55828;DHT22;41758;51.992;5.890;2022-12-24T01:05:46;16.60;72.10
55828;DHT22;41758;51.992;5.890;2022-12-24T01:08:12;16.70;72.20
55828;DHT22;41758;51.992;5.890;2022-12-24T01:10:38;16.80;72.30
55828;DHT22;41758;51.992;5.890;2022-12-24T01:13:04;16.70;71.70
55828;DHT22;41758;51.992;5.890;2022-12-24T01:15:30;16.70;71.70
55828;DHT22;41758;51.992;5.890;2022-12-24T01:17:55;16.70;71.90
55828;DHT22;41758;51.992;5.890;2022-12-24T01:20:22;16.80;71.40
55828;DHT22;41758;51.992;5.890;2022-12-24T01:22:48;16.70;71.70
55828;DHT22;41758;51.992;5.890;2022-12-24T01:25:14;16.70;71.90
55828;DHT22;41758;51.992;5.890;2022-12-24T01:27:40;16.80;71.90
55828;DHT22;41758;51.992;5.890;2022-12-24T01:30:06;16.80;71.90
55828;DHT22;41758;51.992;5.890;2022-12-24T01:32:32;16.80;71.80
55828;DHT22;41758;51.992;5.890;2022-12-24T01:34:58;16.80;71.80
55828;DHT22;41758;51.992;5.890;2022-12-24T01:37:24;16.80;71.90
55828;DHT22;41758;51.992;5.890;2022-12-24T01:39:50;16.80;71.80
55828;DHT22;41758;51.992;5.890;2022-12-24T01:42:20;16.80;71.80
55828;DHT22;41758;51.992;5.890;2022-12-24T01:47:48;16.80;71.60
55828;DHT22;41758;51.992;5.890;2022-12-24T01:50:15;16.80;71.50
55828;DHT22;41758;51.992;5.890;2022-12-24T01:52:41;16.80;71.50
55828;DHT22;41758;51.992;5.890;2022-12-24T01:55:12;16.70;71.10
55828;DHT22;41758;51.992;5.890;2022-12-24T01:57:54;16.70;71.40
55828;DHT22;41758;51.992;5.890;2022-12-24T02:00:21;16.70;71.30
55828;DHT22;41758;51.992;5.890;2022-12-24T02:02:47;16.70;71.50
55828;DHT22;41758;51.992;5.890;2022-12-24T02:07:46;16.60;71.70
55828;DHT22;41758;51.992;5.890;2022-12-24T02:10:12;16.60;71.70
55828;DHT22;41758;51.992;5.890;2022-12-24T02:12:38;16.60;71.80
55828;DHT22;41758;51.992;5.890;2022-12-24T02:15:06;16.60;71.80
55828;DHT22;41758;51.992;5.890;2022-12-24T02:20:35;16.60;71.60
55828;DHT22;41758;51.992;5.890;2022-12-24T02:23:17;16.60;71.40
55828;DHT22;41758;51.992;5.890;2022-12-24T02:30:54;16.50;71.80
55828;DHT22;41758;51.992;5.890;2022-12-24T02:36:03;16.40;71.50
55828;DHT22;41758;51.992;5.890;2022-12-24T02:38:31;16.40;71.50
55828;DHT22;41758;51.992;5.890;2022-12-24T02:40:59;16.40;71.60
55828;DHT22;41758;51.992;5.890;2022-12-24T02:43:28;16.30;71.40
55828;DHT22;41758;51.992;5.890;2022-12-24T02:45:59;16.40;71.60
55828;DHT22;41758;51.992;5.890;2022-12-24T02:48:26;16.40;71.60
55828;DHT22;41758;51.992;5.890;2022-12-24T02:50:57;16.30;71.60
55828;DHT22;41758;51.992;5.890;2022-12-24T02:53:23;16.30;71.50
55828;DHT22;41758;51.992;5.890;2022-12-24T03:01:02;16.30;71.60
55828;DHT22;41758;51.992;5.890;2022-12-24T03:06:22;16.30;71.80
55828;DHT22;41758;51.992;5.890;2022-12-24T03:08:53;16.30;71.80
55828;DHT22;41758;51.992;5.890;2022-12-24T03:11:20;16.30;71.80
55828;DHT22;41758;51.992;5.890;2022-12-24T03:13:46;16.30;71.60
55828;DHT22;41758;51.992;5.890;2022-12-24T03:16:14;16.30;71.60
55828;DHT22;41758;51.992;5.890;2022-12-24T03:18:41;16.30;71.60
55828;DHT22;41758;51.992;5.890;2022-12-24T03:21:21;16.30;71.60
55828;DHT22;41758;51.992;5.890;2022-12-24T03:23:48;16.30;71.80
55828;DHT22;41758;51.992;5.890;2022-12-24T03:26:15;16.30;71.60
55828;DHT22;41758;51.992;5.890;2022-12-24T03:28:41;16.30;71.60
55828;DHT22;41758;51.992;5.890;2022-12-24T03:31:08;16.30;71.60
55828;DHT22;41758;51.992;5.890;2022-12-24T03:33:34;16.30;71.60
55828;DHT22;41758;51.992;5.890;2022-12-24T03:35:59;16.30;71.40
55828;DHT22;41758;51.992;5.890;2022-12-24T03:38:25;16.40;71.50
55828;DHT22;41758;51.992;5.890;2022-12-24T03:40:51;16.40;71.70
55828;DHT22;41758;51.992;5.890;2022-12-24T03:43:17;16.40;71.60
55828;DHT22;41758;51.992;5.890;2022-12-24T03:45:42;16.40;71.50
55828;DHT22;41758;51.992;5.890;2022-12-24T03:48:08;16.40;71.50
55828;DHT22;41758;51.992;5.890;2022-12-24T03:50:33;16.40;71.50
55828;DHT22;41758;51.992;5.890;2022-12-24T03:52:59;16.40;71.60
55828;DHT22;41758;51.992;5.890;2022-12-24T03:55:25;16.50;71.70
55828;DHT22;41758;51.992;5.890;2022-12-24T03:57:50;16.50;71.70
55828;DHT22;41758;51.992;5.890;2022-12-24T04:00:16;16.60;71.60
55828;DHT22;41758;51.992;5.890;2022-12-24T04:02:42;16.60;71.50
55828;DHT22;41758;51.992;5.890;2022-12-24T04:05:09;16.60;71.40
55828;DHT22;41758;51.992;5.890;2022-12-24T04:07:37;16.60;71.30
55828;DHT22;41758;51.992;5.890;2022-12-24T04:10:03;16.60;71.30
55828;DHT22;41758;51.992;5.890;2022-12-24T04:12:29;16.60;71.20
55828;DHT22;41758;51.992;5.890;2022-12-24T04:14:54;16.60;71.10
55828;DHT22;41758;51.992;5.890;2022-12-24T04:17:20;16.60;71.30
55828;DHT22;41758;51.992;5.890;2022-12-24T04:19:45;16.70;71.20
55828;DHT22;41758;51.992;5.890;2022-12-24T04:22:11;16.70;71.10
55828;DHT22;41758;51.992;5.890;2022-12-24T04:24:37;16.60;71.20
55828;DHT22;41758;51.992;5.890;2022-12-24T04:27:02;16.70;71.10
55828;DHT22;41758;51.992;5.890;2022-12-24T04:29:28;16.80;71.00
55828;DHT22;41758;51.992;5.890;2022-12-24T04:31:53;16.70;71.10
55828;DHT22;41758;51.992;5.890;2022-12-24T04:34:19;16.60;70.90
55828;DHT22;41758;51.992;5.890;2022-12-24T04:36:45;16.70;71.10
55828;DHT22;41758;51.992;5.890;2022-12-24T04:39:10;16.70;71.10
55828;DHT22;41758;51.992;5.890;2022-12-24T04:41:36;16.70;71.10
55828;DHT22;41758;51.992;5.890;2022-12-24T04:44:02;16.70;71.20
55828;DHT22;41758;51.992;5.890;2022-12-24T04:46:31;16.80;71.30
55828;DHT22;41758;51.992;5.890;2022-12-24T04:49:00;16.80;71.30
55828;DHT22;41758;51.992;5.890;2022-12-24T04:51:26;16.80;71.20
55828;DHT22;41758;51.992;5.890;2022-12-24T04:53:52;16.80;71.10
55828;DHT22;41758;51.992;5.890;2022-12-24T04:56:22;16.80;71.10
55828;DHT22;41758;51.992;5.890;2022-12-24T04:58:48;16.80;70.90
55828;DHT22;41758;51.992;5.890;2022-12-24T05:01:15;16.80;70.90
55828;DHT22;41758;51.992;5.890;2022-12-24T05:03:41;16.80;70.70
55828;DHT22;41758;51.992;5.890;2022-12-24T05:06:08;16.80;70.90
55828;DHT22;41758;51.992;5.890;2022-12-24T05:08:35;16.80;71.00
55828;DHT22;41758;51.992;5.890;2022-12-24T05:11:01;16.80;71.10
55828;DHT22;41758;51.992;5.890;2022-12-24T05:13:27;16.80;71.10
55828;DHT22;41758;51.992;5.890;2022-12-24T05:15:53;16.80;71.00
55828;DHT22;41758;51.992;5.890;2022-12-24T05:18:19;16.90;71.10
55828;DHT22;41758;51.992;5.890;2022-12-24T05:20:45;16.80;71.20
55828;DHT22;41758;51.992;5.890;2022-12-24T05:23:18;16.90;71.10
55828;DHT22;41758;51.992;5.890;2022-12-24T05:26:02;16.90;71.00
55828;DHT22;41758;51.992;5.890;2022-12-24T05:28:48;16.80;71.00
55828;DHT22;41758;51.992;5.890;2022-12-24T05:31:14;16.80;71.00
55828;DHT22;41758;51.992;5.890;2022-12-24T05:33:40;16.80;71.10
55828;DHT22;41758;51.992;5.890;2022-12-24T05:36:05;16.80;71.10
55828;DHT22;41758;51.992;5.890;2022-12-24T05:38:31;16.80;71.10
55828;DHT22;41758;51.992;5.890;2022-12-24T05:40:57;16.80;71.10
55828;DHT22;41758;51.992;5.890;2022-12-24T05:43:22;16.80;71.10
55828;DHT22;41758;51.992;5.890;2022-12-24T05:45:48;16.80;71.10
55828;DHT22;41758;51.992;5.890;2022-12-24T05:48:14;16.80;71.20
55828;DHT22;41758;51.992;5.890;2022-12-24T05:50:39;16.70;71.10
55828;DHT22;41758;51.992;5.890;2022-12-24T05:53:05;16.70;71.20
55828;DHT22;41758;51.992;5.890;2022-12-24T05:55:31;16.80;71.20
55828;DHT22;41758;51.992;5.890;2022-12-24T05:57:57;16.70;71.20
55828;DHT22;41758;51.992;5.890;2022-12-24T06:00:23;16.80;71.20
55828;DHT22;41758;51.992;5.890;2022-12-24T06:02:48;16.80;71.10
55828;DHT22;41758;51.992;5.890;2022-12-24T06:05:14;16.80;71.10
55828;DHT22;41758;51.992;5.890;2022-12-24T06:07:40;16.70;71.00
55828;DHT22;41758;51.992;5.890;2022-12-24T06:10:06;16.80;71.20
55828;DHT22;41758;51.992;5.890;2022-12-24T06:12:32;16.80;71.30
55828;DHT22;41758;51.992;5.890;2022-12-24T06:14:57;16.80;71.20
55828;DHT22;41758;51.992;5.890;2022-12-24T06:17:23;16.80;71.20
55828;DHT22;41758;51.992;5.890;2022-12-24T06:19:49;16.80;71.20
55828;DHT22;41758;51.992;5.890;2022-12-24T06:22:14;16.80;71.30
55828;DHT22;41758;51.992;5.890;2022-12-24T06:24:40;16.80;71.20
55828;DHT22;41758;51.992;5.890;2022-12-24T06:27:06;16.80;71.20
55828;DHT22;41758;51.992;5.890;2022-12-24T06:29:31;16.80;71.20
55828;DHT22;41758;51.992;5.890;2022-12-24T06:31:57;16.80;71.20
55828;DHT22;41758;51.992;5.890;2022-12-24T06:34:22;16.80;71.20
55828;DHT22;41758;51.992;5.890;2022-12-24T06:36:48;16.80;71.20
55828;DHT22;41758;51.992;5.890;2022-12-24T06:39:14;16.80;71.20
55828;DHT22;41758;51.992;5.890;2022-12-24T06:41:39;16.80;71.20
55828;DHT22;41758;51.992;5.890;2022-12-24T06:44:05;16.80;71.20
55828;DHT22;41758;51.992;5.890;2022-12-24T06:46:31;16.80;71.10
55828;DHT22;41758;51.992;5.890;2022-12-24T06:48:56;16.90;71.00
55828;DHT22;41758;51.992;5.890;2022-12-24T06:51:22;16.90;70.90
55828;DHT22;41758;51.992;5.890;2022-12-24T06:53:48;16.90;70.80
55828;DHT22;41758;51.992;5.890;2022-12-24T06:56:17;16.90;70.80
55828;DHT22;41758;51.992;5.890;2022-12-24T06:58:43;16.90;70.70
55828;DHT22;41758;51.992;5.890;2022-12-24T07:01:10;16.90;70.80
55828;DHT22;41758;51.992;5.890;2022-12-24T07:03:36;16.90;70.70
55828;DHT22;41758;51.992;5.890;2022-12-24T07:06:02;16.90;70.70
55828;DHT22;41758;51.992;5.890;2022-12-24T07:08:27;16.90;70.70
55828;DHT22;41758;51.992;5.890;2022-12-24T07:10:53;16.90;70.70
55828;DHT22;41758;51.992;5.890;2022-12-24T07:13:19;17.00;70.70
55828;DHT22;41758;51.992;5.890;2022-12-24T07:15:44;16.90;70.70
55828;DHT22;41758;51.992;5.890;2022-12-24T07:18:10;16.90;70.60
55828;DHT22;41758;51.992;5.890;2022-12-24T07:20:36;16.90;70.50
55828;DHT22;41758;51.992;5.890;2022-12-24T07:23:02;16.90;70.60
55828;DHT22;41758;51.992;5.890;2022-12-24T07:25:28;17.00;70.60
55828;DHT22;41758;51.992;5.890;2022-12-24T07:27:53;16.90;70.70
55828;DHT22;41758;51.992;5.890;2022-12-24T07:30:19;16.90;70.70
55828;DHT22;41758;51.992;5.890;2022-12-24T07:32:45;17.00;70.80
55828;DHT22;41758;51.992;5.890;2022-12-24T07:35:10;17.00;70.40
55828;DHT22;41758;51.992;5.890;2022-12-24T07:37:36;17.00;70.50
55828;DHT22;41758;51.992;5.890;2022-12-24T07:40:02;17.00;70.50
55828;DHT22;41758;51.992;5.890;2022-12-24T07:42:30;16.90;70.60
55828;DHT22;41758;51.992;5.890;2022-12-24T07:44:56;16.90;70.60
55828;DHT22;41758;51.992;5.890;2022-12-24T07:47:21;17.00;70.70
55828;DHT22;41758;51.992;5.890;2022-12-24T07:49:47;17.00;70.80
55828;DHT22;41758;51.992;5.890;2022-12-24T07:52:13;17.00;70.70
55828;DHT22;41758;51.992;5.890;2022-12-24T07:54:38;17.00;70.80
55828;DHT22;41758;51.992;5.890;2022-12-24T07:57:04;17.00;70.70
55828;DHT22;41758;51.992;5.890;2022-12-24T07:59:30;17.00;70.60
55828;DHT22;41758;51.992;5.890;2022-12-24T08:01:55;17.00;70.60
55828;DHT22;41758;51.992;5.890;2022-12-24T08:04:21;17.10;70.50
55828;DHT22;41758;51.992;5.890;2022-12-24T08:06:47;17.10;70.40
55828;DHT22;41758;51.992;5.890;2022-12-24T08:09:12;17.10;70.50
55828;DHT22;41758;51.992;5.890;2022-12-24T08:11:39;17.10;70.50
55828;DHT22;41758;51.992;5.890;2022-12-24T08:14:05;17.10;70.60
55828;DHT22;41758;51.992;5.890;2022-12-24T08:16:30;17.10;70.70
55828;DHT22;41758;51.992;5.890;2022-12-24T08:18:56;17.10;70.60
55828;DHT22;41758;51.992;5.890;2022-12-24T08:21:22;17.10;70.60
55828;DHT22;41758;51.992;5.890;2022-12-24T08:23:47;17.00;70.70
55828;DHT22;41758;51.992;5.890;2022-12-24T08:26:13;17.10;70.70
55828;DHT22;41758;51.992;5.890;2022-12-24T08:28:39;17.10;70.80
55828;DHT22;41758;51.992;5.890;2022-12-24T08:31:05;17.20;70.80
55828;DHT22;41758;51.992;5.890;2022-12-24T08:33:30;17.20;70.80
55828;DHT22;41758;51.992;5.890;2022-12-24T08:35:59;17.10;70.80
55828;DHT22;41758;51.992;5.890;2022-12-24T08:38:25;17.10;70.50
55828;DHT22;41758;51.992;5.890;2022-12-24T08:40:51;17.10;70.70
55828;DHT22;41758;51.992;5.890;2022-12-24T08:43:17;17.10;70.50
55828;DHT22;41758;51.992;5.890;2022-12-24T08:45:44;17.10;70.80
55828;DHT22;41758;51.992;5.890;2022-12-24T08:48:09;17.20;70.80
55828;DHT22;41758;51.992;5.890;2022-12-24T08:50:37;17.20;70.80
55828;DHT22;41758;51.992;5.890;2022-12-24T08:53:03;17.20;70.80
55828;DHT22;41758;51.992;5.890;2022-12-24T08:55:29;17.20;70.60
55828;DHT22;41758;51.992;5.890;2022-12-24T08:57:54;17.10;70.60
55828;DHT22;41758;51.992;5.890;2022-12-24T09:00:20;17.20;70.70
55828;DHT22;41758;51.992;5.890;2022-12-24T09:02:46;17.20;70.80
55828;DHT22;41758;51.992;5.890;2022-12-24T09:05:12;17.20;70.80
55828;DHT22;41758;51.992;5.890;2022-12-24T09:07:37;17.20;70.80
55828;DHT22;41758;51.992;5.890;2022-12-24T09:10:03;17.30;70.70
55828;DHT22;41758;51.992;5.890;2022-12-24T09:12:29;17.30;70.70
55828;DHT22;41758;51.992;5.890;2022-12-24T09:14:55;17.30;70.60
55828;DHT22;41758;51.992;5.890;2022-12-24T09:17:20;17.30;70.50
55828;DHT22;41758;51.992;5.890;2022-12-24T09:19:46;17.30;70.50
55828;DHT22;41758;51.992;5.890;2022-12-24T09:22:12;17.30;70.50
55828;DHT22;41758;51.992;5.890;2022-12-24T09:24:37;17.30;70.50
55828;DHT22;41758;51.992;5.890;2022-12-24T09:27:03;17.30;70.50
55828;DHT22;41758;51.992;5.890;2022-12-24T09:29:29;17.30;70.30
55828;DHT22;41758;51.992;5.890;2022-12-24T09:31:55;17.30;70.50
55828;DHT22;41758;51.992;5.890;2022-12-24T09:34:22;17.30;70.60
55828;DHT22;41758;51.992;5.890;2022-12-24T09:36:48;17.30;70.60
55828;DHT22;41758;51.992;5.890;2022-12-24T09:39:13;17.30;70.50
55828;DHT22;41758;51.992;5.890;2022-12-24T09:46:52;17.30;70.50
55828;DHT22;41758;51.992;5.890;2022-12-24T09:49:22;17.40;70.60
55828;DHT22;41758;51.992;5.890;2022-12-24T09:51:50;17.30;70.40
55828;DHT22;41758;51.992;5.890;2022-12-24T09:54:19;17.30;70.50
55828;DHT22;41758;51.992;5.890;2022-12-24T09:56:47;17.40;70.50
55828;DHT22;41758;51.992;5.890;2022-12-24T09:59:20;17.40;70.60
55828;DHT22;41758;51.992;5.890;2022-12-24T10:01:47;17.40;70.50
55828;DHT22;41758;51.992;5.890;2022-12-24T10:04:14;17.40;70.20
55828;DHT22;41758;51.992;5.890;2022-12-24T10:12:02;17.50;70.50
55828;DHT22;41758;51.992;5.890;2022-12-24T10:17:35;17.50;70.60
55828;DHT22;41758;51.992;5.890;2022-12-24T10:25:13;17.60;70.40
55828;DHT22;41758;51.992;5.890;2022-12-24T10:27:41;17.60;70.30
55828;DHT22;41758;51.992;5.890;2022-12-24T10:32:39;17.60;70.50
55828;DHT22;41758;51.992;5.890;2022-12-24T10:37:38;17.60;70.40
55828;DHT22;41758;51.992;5.890;2022-12-24T10:40:04;17.70;70.50
55828;DHT22;41758;51.992;5.890;2022-12-24T10:42:40;17.70;70.50
55828;DHT22;41758;51.992;5.890;2022-12-24T10:45:13;17.80;70.50
55828;DHT22;41758;51.992;5.890;2022-12-24T10:47:39;17.80;70.20
55828;DHT22;41758;51.992;5.890;2022-12-24T10:50:19;17.80;70.40
55828;DHT22;41758;51.992;5.890;2022-12-24T10:52:48;17.70;70.00
55828;DHT22;41758;51.992;5.890;2022-12-24T10:57:41;17.70;70.10
55828;DHT22;41758;51.992;5.890;2022-12-24T11:00:17;17.70;70.20
55828;DHT22;41758;51.992;5.890;2022-12-24T11:02:44;17.70;70.20
55828;DHT22;41758;51.992;5.890;2022-12-24T11:05:27;17.80;70.30
55828;DHT22;41758;51.992;5.890;2022-12-24T11:08:01;17.80;70.10
55828;DHT22;41758;51.992;5.890;2022-12-24T11:10:27;17.70;70.20
55828;DHT22;41758;51.992;5.890;2022-12-24T11:12:52;17.70;70.40
55828;DHT22;41758;51.992;5.890;2022-12-24T11:15:19;17.70;70.30
55828;DHT22;41758;51.992;5.890;2022-12-24T11:18:03;17.70;70.20
55828;DHT22;41758;51.992;5.890;2022-12-24T11:20:30;17.70;70.30
55828;DHT22;41758;51.992;5.890;2022-12-24T11:22:57;17.70;70.10
55828;DHT22;41758;51.992;5.890;2022-12-24T11:25:24;17.70;70.10
55828;DHT22;41758;51.992;5.890;2022-12-24T11:27:52;17.70;70.10
55828;DHT22;41758;51.992;5.890;2022-12-24T11:30:22;17.70;70.10
55828;DHT22;41758;51.992;5.890;2022-12-24T11:32:49;17.70;70.00
55828;DHT22;41758;51.992;5.890;2022-12-24T11:35:16;17.70;70.20
55828;DHT22;41758;51.992;5.890;2022-12-24T11:37:42;17.70;69.80
55828;DHT22;41758;51.992;5.890;2022-12-24T11:40:18;17.70;70.20
55828;DHT22;41758;51.992;5.890;2022-12-24T11:42:44;17.70;70.20
55828;DHT22;41758;51.992;5.890;2022-12-24T11:45:16;17.60;70.20
55828;DHT22;41758;51.992;5.890;2022-12-24T11:47:43;17.70;70.20
55828;DHT22;41758;51.992;5.890;2022-12-24T12:00:41;17.70;70.70
55828;DHT22;41758;51.992;5.890;2022-12-24T12:03:22;17.80;70.90
55828;DHT22;41758;51.992;5.890;2022-12-24T12:05:50;17.80;70.60
55828;DHT22;41758;51.992;5.890;2022-12-24T12:08:17;17.90;70.40
55828;DHT22;41758;51.992;5.890;2022-12-24T12:10:43;18.00;70.50
55828;DHT22;41758;51.992;5.890;2022-12-24T12:13:31;18.10;70.40
55828;DHT22;41758;51.992;5.890;2022-12-24T12:18:36;18.10;70.00
55828;DHT22;41758;51.992;5.890;2022-12-24T12:21:03;18.10;70.00
55828;DHT22;41758;51.992;5.890;2022-12-24T12:23:47;18.10;69.70
55828;DHT22;41758;51.992;5.890;2022-12-24T12:26:24;18.00;69.70
55828;DHT22;41758;51.992;5.890;2022-12-24T12:28:53;18.00;69.70
55828;DHT22;41758;51.992;5.890;2022-12-24T12:33:53;18.00;69.70
55828;DHT22;41758;51.992;5.890;2022-12-24T12:36:24;18.00;69.90
55828;DHT22;41758;51.992;5.890;2022-12-24T12:38:51;17.90;69.70
55828;DHT22;41758;51.992;5.890;2022-12-24T12:41:25;17.80;69.70
55828;DHT22;41758;51.992;5.890;2022-12-24T12:44:08;17.80;69.90
55828;DHT22;41758;51.992;5.890;2022-12-24T12:46:45;17.80;69.80
55828;DHT22;41758;51.992;5.890;2022-12-24T12:52:09;17.70;70.30
55828;DHT22;41758;51.992;5.890;2022-12-24T12:54:54;17.70;70.30
55828;DHT22;41758;51.992;5.890;2022-12-24T12:57:25;17.80;70.40
55828;DHT22;41758;51.992;5.890;2022-12-24T13:00:02;17.80;69.30
55828;DHT22;41758;51.992;5.890;2022-12-24T13:02:49;17.80;69.90
55828;DHT22;41758;51.992;5.890;2022-12-24T13:10:24;17.70;70.40
55828;DHT22;41758;51.992;5.890;2022-12-24T13:20:52;17.80;70.60
55828;DHT22;41758;51.992;5.890;2022-12-24T13:23:21;17.80;70.30
55828;DHT22;41758;51.992;5.890;2022-12-24T13:25:49;17.80;70.30
55828;DHT22;41758;51.992;5.890;2022-12-24T13:36:00;17.90;70.00
55828;DHT22;41758;51.992;5.890;2022-12-24T13:40:52;17.80;70.00
55828;DHT22;41758;51.992;5.890;2022-12-24T13:43:18;17.80;70.00
55828;DHT22;41758;51.992;5.890;2022-12-24T13:45:47;17.80;69.90
55828;DHT22;41758;51.992;5.890;2022-12-24T13:51:23;17.70;69.50
55828;DHT22;41758;51.992;5.890;2022-12-24T13:56:07;17.50;69.70
55828;DHT22;41758;51.992;5.890;2022-12-24T13:58:44;17.40;69.30
55828;DHT22;41758;51.992;5.890;2022-12-24T14:01:12;17.40;69.80
55828;DHT22;41758;51.992;5.890;2022-12-24T14:03:42;17.40;70.20
55828;DHT22;41758;51.992;5.890;2022-12-24T14:06:10;17.40;70.30
55828;DHT22;41758;51.992;5.890;2022-12-24T14:08:41;17.40;70.30
55828;DHT22;41758;51.992;5.890;2022-12-24T14:11:15;17.40;70.30
55828;DHT22;41758;51.992;5.890;2022-12-24T14:16:08;17.40;70.30
55828;DHT22;41758;51.992;5.890;2022-12-24T14:18:40;17.40;70.20
55828;DHT22;41758;51.992;5.890;2022-12-24T14:21:07;17.50;70.30
55828;DHT22;41758;51.992;5.890;2022-12-24T14:23:58;17.50;70.40
55828;DHT22;41758;51.992;5.890;2022-12-24T14:26:35;17.50;70.30
55828;DHT22;41758;51.992;5.890;2022-12-24T14:29:20;17.40;70.20
55828;DHT22;41758;51.992;5.890;2022-12-24T14:31:53;17.40;70.40
55828;DHT22;41758;51.992;5.890;2022-12-24T14:34:19;17.40;70.30
55828;DHT22;41758;51.992;5.890;2022-12-24T14:36:45;17.40;70.30
55828;DHT22;41758;51.992;5.890;2022-12-24T14:39:16;17.40;70.10
55828;DHT22;41758;51.992;5.890;2022-12-24T14:41:45;17.40;70.20
55828;DHT22;41758;51.992;5.890;2022-12-24T14:46:42;17.40;70.20
55828;DHT22;41758;51.992;5.890;2022-12-24T14:49:24;17.30;70.20
55828;DHT22;41758;51.992;5.890;2022-12-24T14:54:38;17.30;70.30
55828;DHT22;41758;51.992;5.890;2022-12-24T15:00:19;17.40;70.40
55828;DHT22;41758;51.992;5.890;2022-12-24T15:02:37;17.30;70.20
55828;DHT22;41758;51.992;5.890;2022-12-24T15:07:30;17.30;70.20
55828;DHT22;41758;51.992;5.890;2022-12-24T15:09:55;17.30;70.20
55828;DHT22;41758;51.992;5.890;2022-12-24T15:12:21;17.30;70.20
55828;DHT22;41758;51.992;5.890;2022-12-24T15:14:48;17.30;70.30
55828;DHT22;41758;51.992;5.890;2022-12-24T15:17:13;17.20;70.30
55828;DHT22;41758;51.992;5.890;2022-12-24T15:19:41;17.30;70.20
55828;DHT22;41758;51.992;5.890;2022-12-24T15:22:08;17.20;70.20
55828;DHT22;41758;51.992;5.890;2022-12-24T15:24:36;17.10;70.30
55828;DHT22;41758;51.992;5.890;2022-12-24T15:27:30;17.10;70.30
55828;DHT22;41758;51.992;5.890;2022-12-24T15:29:56;17.10;70.40
55828;DHT22;41758;51.992;5.890;2022-12-24T15:32:22;17.10;70.30
55828;DHT22;41758;51.992;5.890;2022-12-24T15:34:49;17.10;70.30
55828;DHT22;41758;51.992;5.890;2022-12-24T15:37:19;17.10;70.40
55828;DHT22;41758;51.992;5.890;2022-12-24T15:42:29;17.10;70.40
55828;DHT22;41758;51.992;5.890;2022-12-24T15:45:02;17.10;70.50
55828;DHT22;41758;51.992;5.890;2022-12-24T15:47:51;17.10;70.40
55828;DHT22;41758;51.992;5.890;2022-12-24T15:50:17;17.10;70.40
55828;DHT22;41758;51.992;5.890;2022-12-24T15:52:43;17.00;70.40
55828;DHT22;41758;51.992;5.890;2022-12-24T15:55:23;17.00;70.40
55828;DHT22;41758;51.992;5.890;2022-12-24T15:57:49;17.00;70.50
55828;DHT22;41758;51.992;5.890;2022-12-24T16:00:22;17.00;70.50
55828;DHT22;41758;51.992;5.890;2022-12-24T16:02:49;17.00;70.50
55828;DHT22;41758;51.992;5.890;2022-12-24T16:07:59;17.00;70.50
55828;DHT22;41758;51.992;5.890;2022-12-24T16:10:38;17.00;70.40
55828;DHT22;41758;51.992;5.890;2022-12-24T16:13:15;17.00;70.40
55828;DHT22;41758;51.992;5.890;2022-12-24T16:15:43;17.00;70.40
55828;DHT22;41758;51.992;5.890;2022-12-24T16:18:16;17.00;70.40
55828;DHT22;41758;51.992;5.890;2022-12-24T16:20:45;17.00;70.40
55828;DHT22;41758;51.992;5.890;2022-12-24T16:23:15;17.00;70.40
55828;DHT22;41758;51.992;5.890;2022-12-24T16:25:41;16.90;70.40
55828;DHT22;41758;51.992;5.890;2022-12-24T16:28:09;17.00;70.40
55828;DHT22;41758;51.992;5.890;2022-12-24T16:30:35;16.90;70.40
55828;DHT22;41758;51.992;5.890;2022-12-24T16:33:01;16.90;70.40
55828;DHT22;41758;51.992;5.890;2022-12-24T16:35:27;16.90;70.30
55828;DHT22;41758;51.992;5.890;2022-12-24T16:37:57;16.90;70.40
55828;DHT22;41758;51.992;5.890;2022-12-24T16:40:23;16.90;70.40
55828;DHT22;41758;51.992;5.890;2022-12-24T16:42:48;16.80;70.40
55828;DHT22;41758;51.992;5.890;2022-12-24T16:45:33;16.90;70.40
55828;DHT22;41758;51.992;5.890;2022-12-24T16:48:00;16.90;70.40
55828;DHT22;41758;51.992;5.890;2022-12-24T16:50:25;16.80;70.40
55828;DHT22;41758;51.992;5.890;2022-12-24T16:52:51;16.80;70.50
55828;DHT22;41758;51.992;5.890;2022-12-24T16:55:17;16.80;70.40
55828;DHT22;41758;51.992;5.890;2022-12-24T16:57:43;16.80;70.40
55828;DHT22;41758;51.992;5.890;2022-12-24T17:00:15;16.80;70.40
55828;DHT22;41758;51.992;5.890;2022-12-24T17:02:42;16.70;70.40
55828;DHT22;41758;51.992;5.890;2022-12-24T17:05:08;16.70;70.50
55828;DHT22;41758;51.992;5.890;2022-12-24T17:07:34;16.70;70.50
55828;DHT22;41758;51.992;5.890;2022-12-24T17:09:59;16.60;70.50
55828;DHT22;41758;51.992;5.890;2022-12-24T17:12:25;16.60;70.50
55828;DHT22;41758;51.992;5.890;2022-12-24T17:14:51;16.60;70.50
55828;DHT22;41758;51.992;5.890;2022-12-24T17:17:23;16.50;70.50
55828;DHT22;41758;51.992;5.890;2022-12-24T17:19:49;16.50;70.50
55828;DHT22;41758;51.992;5.890;2022-12-24T17:22:15;16.50;70.50
55828;DHT22;41758;51.992;5.890;2022-12-24T17:24:41;16.50;70.60
55828;DHT22;41758;51.992;5.890;2022-12-24T17:27:06;16.50;70.50
55828;DHT22;41758;51.992;5.890;2022-12-24T17:29:32;16.40;70.50